sensor_id;sensor_type;location;lat;lon;timestamp;P1;durP1;ratioP1;P2;durP2;ratioP2
80133;SDS011;69443;51.442;10.564;2023-06-01T00:01:45;1.45;;;0.90;;
80133;SDS011;69443;51.442;10.564;2023-06-01T00:04:11;2.15;;;1.17;;
80133;SDS011;69443;51.442;10.564;2023-06-01T00:06:38;1.10;;;1.00;;
80133;SDS011;69443;51.442;10.564;2023-06-01T00:09:04;1.20;;;1.02;;
80133;SDS011;69443;51.442;10.564;2023-06-01T00:11:29;1.30;;;0.90;;
80133;SDS011;69443;51.442;10.564;2023-06-01T00:13:55;1.70;;;1.05;;
80133;SDS011;69443;51.442;10.564;2023-06-01T00:16:20;1.33;;;1.20;;
80133;SDS011;69443;51.442;10.564;2023-06-01T00:18:47;2.00;;;1.20;;
80133;SDS011;69443;51.442;10.564;2023-06-01T00:21:13;1.95;;;1.10;;
80133;SDS011;69443;51.442;10.564;2023-06-01T00:23:38;1.20;;;1.10;;
80133;SDS011;69443;51.442;10.564;2023-06-01T00:26:06;3.75;;;1.45;;
80133;SDS011;69443;51.442;10.564;2023-06-01T00:28:33;1.85;;;1.00;;
80133;SDS011;69443;51.442;10.564;2023-06-01T00:30:58;1.98;;;1.25;;
80133;SDS011;69443;51.442;10.564;2023-06-01T00:33:24;1.25;;;1.10;;
80133;SDS011;69443;51.442;10.564;2023-06-01T00:35:50;1.38;;;1.20;;
80133;SDS011;69443;51.442;10.564;2023-06-01T00:38:15;3.00;;;1.30;;
80133;SDS011;69443;51.442;10.564;2023-06-01T00:40:41;3.00;;;1.30;;
80133;SDS011;69443;51.442;10.564;2023-06-01T00:43:08;2.30;;;1.40;;
80133;SDS011;69443;51.442;10.564;2023-06-01T00:45:33;4.97;;;1.52;;
80133;SDS011;69443;51.442;10.564;2023-06-01T00:47:59;3.53;;;1.60;;
80133;SDS011;69443;51.442;10.564;2023-06-01T00:50:24;3.40;;;1.40;;
80133;SDS011;69443;51.442;10.564;2023-06-01T00:52:50;2.17;;;1.48;;
80133;SDS011;69443;51.442;10.564;2023-06-01T00:55:17;1.15;;;1.02;;
80133;SDS011;69443;51.442;10.564;2023-06-01T00:57:45;3.30;;;1.50;;
80133;SDS011;69443;51.442;10.564;2023-06-01T01:00:10;2.25;;;1.17;;
80133;SDS011;69443;51.442;10.564;2023-06-01T01:02:37;1.67;;;1.13;;
80133;SDS011;69443;51.442;10.564;2023-06-01T01:05:04;2.13;;;1.05;;
80133;SDS011;69443;51.442;10.564;2023-06-01T01:10:13;2.42;;;1.20;;
80133;SDS011;69443;51.442;10.564;2023-06-01T01:18:06;2.63;;;1.10;;
80133;SDS011;69443;51.442;10.564;2023-06-01T01:20:38;3.30;;;1.50;;
80133;SDS011;69443;51.442;10.564;2023-06-01T01:28:47;2.85;;;1.30;;
80133;SDS011;69443;51.442;10.564;2023-06-01T01:31:17;3.25;;;1.27;;
80133;SDS011;69443;51.442;10.564;2023-06-01T01:33:44;3.10;;;1.30;;
80133;SDS011;69443;51.442;10.564;2023-06-01T01:36:11;2.28;;;1.17;;
80133;SDS011;69443;51.442;10.564;2023-06-01T01:38:37;3.03;;;1.30;;
80133;SDS011;69443;51.442;10.564;2023-06-01T01:41:02;1.40;;;1.02;;
80133;SDS011;69443;51.442;10.564;2023-06-01T01:43:28;2.53;;;1.38;;
80133;SDS011;69443;51.442;10.564;2023-06-01T01:46:07;2.10;;;1.42;;
80133;SDS011;69443;51.442;10.564;2023-06-01T01:48:35;2.03;;;1.40;;
80133;SDS011;69443;51.442;10.564;2023-06-01T01:51:10;2.22;;;1.40;;
80133;SDS011;69443;51.442;10.564;2023-06-01T01:53:40;1.98;;;1.20;;
80133;SDS011;69443;51.442;10.564;2023-06-01T01:56:07;3.65;;;1.30;;
80133;SDS011;69443;51.442;10.564;2023-06-01T01:58:34;3.38;;;1.67;;
80133;SDS011;69443;51.442;10.564;2023-06-01T02:01:00;1.58;;;1.10;;
80133;SDS011;69443;51.442;10.564;2023-06-01T02:03:28;2.30;;;1.10;;
80133;SDS011;69443;51.442;10.564;2023-06-01T02:05:53;3.35;;;1.70;;
80133;SDS011;69443;51.442;10.564;2023-06-01T02:08:19;1.73;;;1.40;;
80133;SDS011;69443;51.442;10.564;2023-06-01T02:10:44;3.47;;;1.80;;
80133;SDS011;69443;51.442;10.564;2023-06-01T02:13:10;3.17;;;1.48;;
80133;SDS011;69443;51.442;10.564;2023-06-01T02:15:35;1.92;;;1.38;;
80133;SDS011;69443;51.442;10.564;2023-06-01T02:18:00;3.08;;;1.52;;
80133;SDS011;69443;51.442;10.564;2023-06-01T02:20:27;1.73;;;1.13;;
80133;SDS011;69443;51.442;10.564;2023-06-01T02:22:52;2.78;;;1.45;;
80133;SDS011;69443;51.442;10.564;2023-06-01T02:25:18;1.70;;;1.13;;
80133;SDS011;69443;51.442;10.564;2023-06-01T02:27:44;1.08;;;0.95;;
80133;SDS011;69443;51.442;10.564;2023-06-01T02:30:10;1.55;;;1.38;;
80133;SDS011;69443;51.442;10.564;2023-06-01T02:32:36;3.33;;;1.50;;
80133;SDS011;69443;51.442;10.564;2023-06-01T02:35:02;1.52;;;1.42;;
80133;SDS011;69443;51.442;10.564;2023-06-01T02:37:28;4.28;;;1.67;;
80133;SDS011;69443;51.442;10.564;2023-06-01T02:39:53;5.40;;;1.08;;
80133;SDS011;69443;51.442;10.564;2023-06-01T02:42:19;3.95;;;1.50;;
80133;SDS011;69443;51.442;10.564;2023-06-01T02:44:44;1.67;;;1.42;;
80133;SDS011;69443;51.442;10.564;2023-06-01T02:47:10;3.22;;;1.55;;
80133;SDS011;69443;51.442;10.564;2023-06-01T02:49:35;3.47;;;1.50;;
80133;SDS011;69443;51.442;10.564;2023-06-01T02:52:01;3.15;;;1.25;;
80133;SDS011;69443;51.442;10.564;2023-06-01T02:54:26;1.35;;;1.10;;
80133;SDS011;69443;51.442;10.564;2023-06-01T02:56:51;4.20;;;1.00;;
80133;SDS011;69443;51.442;10.564;2023-06-01T02:59:17;2.95;;;1.30;;
80133;SDS011;69443;51.442;10.564;2023-06-01T03:01:42;3.25;;;1.50;;
80133;SDS011;69443;51.442;10.564;2023-06-01T03:04:07;3.80;;;1.30;;
80133;SDS011;69443;51.442;10.564;2023-06-01T03:06:33;3.08;;;1.10;;
80133;SDS011;69443;51.442;10.564;2023-06-01T03:09:02;0.98;;;0.88;;
80133;SDS011;69443;51.442;10.564;2023-06-01T03:11:28;2.70;;;1.10;;
80133;SDS011;69443;51.442;10.564;2023-06-01T03:13:54;2.22;;;1.20;;
80133;SDS011;69443;51.442;10.564;2023-06-01T03:16:21;1.70;;;1.42;;
80133;SDS011;69443;51.442;10.564;2023-06-01T03:18:47;1.42;;;1.20;;
80133;SDS011;69443;51.442;10.564;2023-06-01T03:21:12;1.67;;;1.33;;
80133;SDS011;69443;51.442;10.564;2023-06-01T03:23:38;4.18;;;1.70;;
80133;SDS011;69443;51.442;10.564;2023-06-01T03:26:08;1.90;;;1.20;;
80133;SDS011;69443;51.442;10.564;2023-06-01T03:28:37;1.92;;;1.33;;
80133;SDS011;69443;51.442;10.564;2023-06-01T03:31:03;5.05;;;2.70;;
80133;SDS011;69443;51.442;10.564;2023-06-01T03:33:29;9.02;;;3.72;;
80133;SDS011;69443;51.442;10.564;2023-06-01T03:35:55;5.63;;;2.78;;
80133;SDS011;69443;51.442;10.564;2023-06-01T03:38:21;4.70;;;2.47;;
80133;SDS011;69443;51.442;10.564;2023-06-01T03:40:46;4.85;;;2.35;;
80133;SDS011;69443;51.442;10.564;2023-06-01T03:43:12;6.10;;;2.67;;
80133;SDS011;69443;51.442;10.564;2023-06-01T03:45:37;2.90;;;2.17;;
80133;SDS011;69443;51.442;10.564;2023-06-01T03:48:02;4.10;;;2.15;;
80133;SDS011;69443;51.442;10.564;2023-06-01T03:50:28;5.13;;;2.22;;
80133;SDS011;69443;51.442;10.564;2023-06-01T03:52:54;4.82;;;2.00;;
80133;SDS011;69443;51.442;10.564;2023-06-01T03:55:20;5.95;;;2.75;;
80133;SDS011;69443;51.442;10.564;2023-06-01T03:57:45;2.90;;;2.08;;
80133;SDS011;69443;51.442;10.564;2023-06-01T04:00:11;6.00;;;3.28;;
80133;SDS011;69443;51.442;10.564;2023-06-01T04:02:53;4.15;;;2.83;;
80133;SDS011;69443;51.442;10.564;2023-06-01T04:05:21;6.93;;;2.90;;
80133;SDS011;69443;51.442;10.564;2023-06-01T04:07:47;4.22;;;2.58;;
80133;SDS011;69443;51.442;10.564;2023-06-01T04:10:13;4.55;;;2.50;;
80133;SDS011;69443;51.442;10.564;2023-06-01T04:12:41;4.90;;;2.55;;
80133;SDS011;69443;51.442;10.564;2023-06-01T04:15:07;4.35;;;2.42;;
80133;SDS011;69443;51.442;10.564;2023-06-01T04:17:37;4.00;;;2.25;;
80133;SDS011;69443;51.442;10.564;2023-06-01T04:20:04;6.25;;;2.65;;
80133;SDS011;69443;51.442;10.564;2023-06-01T04:22:34;4.68;;;2.60;;
80133;SDS011;69443;51.442;10.564;2023-06-01T04:25:00;5.90;;;2.60;;
80133;SDS011;69443;51.442;10.564;2023-06-01T04:27:25;7.38;;;2.72;;
80133;SDS011;69443;51.442;10.564;2023-06-01T04:29:52;3.33;;;2.25;;
80133;SDS011;69443;51.442;10.564;2023-06-01T04:32:18;7.65;;;2.72;;
80133;SDS011;69443;51.442;10.564;2023-06-01T04:34:46;5.22;;;4.07;;
80133;SDS011;69443;51.442;10.564;2023-06-01T04:37:15;6.35;;;3.92;;
80133;SDS011;69443;51.442;10.564;2023-06-01T04:39:40;6.65;;;3.65;;
80133;SDS011;69443;51.442;10.564;2023-06-01T04:42:07;4.95;;;3.25;;
80133;SDS011;69443;51.442;10.564;2023-06-01T04:44:33;7.05;;;4.22;;
80133;SDS011;69443;51.442;10.564;2023-06-01T04:46:59;7.15;;;4.35;;
80133;SDS011;69443;51.442;10.564;2023-06-01T04:49:28;7.75;;;3.95;;
80133;SDS011;69443;51.442;10.564;2023-06-01T04:51:55;1.88;;;1.30;;
80133;SDS011;69443;51.442;10.564;2023-06-01T04:54:20;3.17;;;2.20;;
80133;SDS011;69443;51.442;10.564;2023-06-01T04:56:45;4.47;;;2.38;;
80133;SDS011;69443;51.442;10.564;2023-06-01T04:59:11;2.42;;;2.22;;
80133;SDS011;69443;51.442;10.564;2023-06-01T05:01:37;4.82;;;2.08;;
80133;SDS011;69443;51.442;10.564;2023-06-01T05:04:03;4.47;;;2.40;;
80133;SDS011;69443;51.442;10.564;2023-06-01T05:06:29;5.50;;;2.22;;
80133;SDS011;69443;51.442;10.564;2023-06-01T05:08:54;4.18;;;2.60;;
80133;SDS011;69443;51.442;10.564;2023-06-01T05:11:20;4.13;;;2.15;;
80133;SDS011;69443;51.442;10.564;2023-06-01T05:13:46;3.42;;;2.08;;
80133;SDS011;69443;51.442;10.564;2023-06-01T05:16:12;3.47;;;1.75;;
80133;SDS011;69443;51.442;10.564;2023-06-01T05:18:37;4.55;;;2.95;;
80133;SDS011;69443;51.442;10.564;2023-06-01T05:21:03;7.72;;;5.25;;
80133;SDS011;69443;51.442;10.564;2023-06-01T05:23:28;6.05;;;3.30;;
80133;SDS011;69443;51.442;10.564;2023-06-01T05:25:54;6.13;;;4.00;;
80133;SDS011;69443;51.442;10.564;2023-06-01T05:28:27;6.65;;;2.72;;
80133;SDS011;69443;51.442;10.564;2023-06-01T05:30:56;9.32;;;4.80;;
80133;SDS011;69443;51.442;10.564;2023-06-01T05:33:22;12.32;;;5.15;;
80133;SDS011;69443;51.442;10.564;2023-06-01T05:35:47;9.07;;;5.80;;
80133;SDS011;69443;51.442;10.564;2023-06-01T05:38:13;4.47;;;2.83;;
80133;SDS011;69443;51.442;10.564;2023-06-01T05:40:38;4.78;;;2.72;;
80133;SDS011;69443;51.442;10.564;2023-06-01T05:43:03;10.77;;;5.90;;
80133;SDS011;69443;51.442;10.564;2023-06-01T05:45:29;7.85;;;4.85;;
80133;SDS011;69443;51.442;10.564;2023-06-01T05:47:54;3.03;;;2.08;;
80133;SDS011;69443;51.442;10.564;2023-06-01T05:50:20;2.90;;;2.35;;
80133;SDS011;69443;51.442;10.564;2023-06-01T05:52:45;8.05;;;4.65;;
80133;SDS011;69443;51.442;10.564;2023-06-01T05:55:11;6.55;;;4.82;;
80133;SDS011;69443;51.442;10.564;2023-06-01T05:57:36;7.72;;;5.15;;
80133;SDS011;69443;51.442;10.564;2023-06-01T06:00:02;4.00;;;2.60;;
80133;SDS011;69443;51.442;10.564;2023-06-01T06:02:32;5.28;;;3.17;;
80133;SDS011;69443;51.442;10.564;2023-06-01T06:04:58;6.45;;;3.53;;
80133;SDS011;69443;51.442;10.564;2023-06-01T06:07:23;6.57;;;3.95;;
80133;SDS011;69443;51.442;10.564;2023-06-01T06:09:48;4.07;;;2.88;;
80133;SDS011;69443;51.442;10.564;2023-06-01T06:12:14;4.05;;;2.75;;
80133;SDS011;69443;51.442;10.564;2023-06-01T06:14:39;4.38;;;2.75;;
80133;SDS011;69443;51.442;10.564;2023-06-01T06:17:05;6.93;;;4.70;;
80133;SDS011;69443;51.442;10.564;2023-06-01T06:19:30;4.10;;;3.33;;
80133;SDS011;69443;51.442;10.564;2023-06-01T06:21:55;5.38;;;3.75;;
80133;SDS011;69443;51.442;10.564;2023-06-01T06:24:21;3.30;;;2.75;;
80133;SDS011;69443;51.442;10.564;2023-06-01T06:26:46;7.18;;;5.25;;
80133;SDS011;69443;51.442;10.564;2023-06-01T06:29:12;5.03;;;3.60;;
80133;SDS011;69443;51.442;10.564;2023-06-01T06:31:37;9.05;;;6.10;;
80133;SDS011;69443;51.442;10.564;2023-06-01T06:34:03;7.85;;;5.28;;
80133;SDS011;69443;51.442;10.564;2023-06-01T06:36:28;7.55;;;3.85;;
80133;SDS011;69443;51.442;10.564;2023-06-01T06:38:53;2.85;;;2.50;;
80133;SDS011;69443;51.442;10.564;2023-06-01T06:41:19;5.53;;;4.57;;
80133;SDS011;69443;51.442;10.564;2023-06-01T06:43:46;6.65;;;4.28;;
80133;SDS011;69443;51.442;10.564;2023-06-01T06:46:11;3.00;;;2.58;;
80133;SDS011;69443;51.442;10.564;2023-06-01T06:48:36;6.88;;;4.65;;
80133;SDS011;69443;51.442;10.564;2023-06-01T06:51:02;6.25;;;4.68;;
80133;SDS011;69443;51.442;10.564;2023-06-01T06:53:27;8.80;;;6.13;;
80133;SDS011;69443;51.442;10.564;2023-06-01T06:55:53;6.53;;;4.53;;
80133;SDS011;69443;51.442;10.564;2023-06-01T06:58:18;4.55;;;3.40;;
80133;SDS011;69443;51.442;10.564;2023-06-01T07:00:43;7.70;;;5.82;;
80133;SDS011;69443;51.442;10.564;2023-06-01T07:03:09;7.95;;;5.45;;
80133;SDS011;69443;51.442;10.564;2023-06-01T07:05:35;3.35;;;2.90;;
80133;SDS011;69443;51.442;10.564;2023-06-01T07:08:00;3.60;;;3.25;;
80133;SDS011;69443;51.442;10.564;2023-06-01T07:10:26;5.63;;;3.90;;
80133;SDS011;69443;51.442;10.564;2023-06-01T07:12:51;8.35;;;5.57;;
80133;SDS011;69443;51.442;10.564;2023-06-01T07:15:17;5.80;;;3.80;;
80133;SDS011;69443;51.442;10.564;2023-06-01T07:17:42;3.85;;;2.67;;
80133;SDS011;69443;51.442;10.564;2023-06-01T07:20:08;12.80;;;7.55;;
80133;SDS011;69443;51.442;10.564;2023-06-01T07:22:36;9.57;;;5.97;;
80133;SDS011;69443;51.442;10.564;2023-06-01T07:25:01;8.15;;;5.30;;
80133;SDS011;69443;51.442;10.564;2023-06-01T07:27:27;11.80;;;7.95;;
80133;SDS011;69443;51.442;10.564;2023-06-01T07:29:53;8.63;;;6.18;;
80133;SDS011;69443;51.442;10.564;2023-06-01T07:32:24;7.90;;;5.80;;
80133;SDS011;69443;51.442;10.564;2023-06-01T07:34:50;13.13;;;7.78;;
80133;SDS011;69443;51.442;10.564;2023-06-01T07:37:16;11.57;;;7.03;;
80133;SDS011;69443;51.442;10.564;2023-06-01T07:39:46;10.00;;;6.43;;
80133;SDS011;69443;51.442;10.564;2023-06-01T07:42:15;5.63;;;4.00;;
80133;SDS011;69443;51.442;10.564;2023-06-01T07:44:41;9.23;;;6.57;;
80133;SDS011;69443;51.442;10.564;2023-06-01T07:47:06;6.93;;;5.32;;
80133;SDS011;69443;51.442;10.564;2023-06-01T07:49:32;7.72;;;5.38;;
80133;SDS011;69443;51.442;10.564;2023-06-01T07:52:01;9.15;;;6.05;;
80133;SDS011;69443;51.442;10.564;2023-06-01T07:54:26;5.70;;;4.03;;
80133;SDS011;69443;51.442;10.564;2023-06-01T07:56:52;7.03;;;5.18;;
80133;SDS011;69443;51.442;10.564;2023-06-01T07:59:18;10.40;;;7.57;;
80133;SDS011;69443;51.442;10.564;2023-06-01T08:01:46;9.57;;;6.72;;
80133;SDS011;69443;51.442;10.564;2023-06-01T08:04:13;7.80;;;5.68;;
80133;SDS011;69443;51.442;10.564;2023-06-01T08:06:39;5.80;;;3.92;;
80133;SDS011;69443;51.442;10.564;2023-06-01T08:09:06;7.03;;;5.15;;
80133;SDS011;69443;51.442;10.564;2023-06-01T08:11:32;6.57;;;4.85;;
80133;SDS011;69443;51.442;10.564;2023-06-01T08:13:57;10.55;;;6.95;;
80133;SDS011;69443;51.442;10.564;2023-06-01T08:16:25;7.18;;;4.90;;
80133;SDS011;69443;51.442;10.564;2023-06-01T08:18:51;8.00;;;5.47;;
80133;SDS011;69443;51.442;10.564;2023-06-01T08:21:17;8.55;;;5.35;;
80133;SDS011;69443;51.442;10.564;2023-06-01T08:23:42;7.78;;;5.88;;
80133;SDS011;69443;51.442;10.564;2023-06-01T08:26:08;7.32;;;5.47;;
80133;SDS011;69443;51.442;10.564;2023-06-01T08:28:33;9.85;;;6.18;;
80133;SDS011;69443;51.442;10.564;2023-06-01T08:30:59;8.63;;;5.80;;
80133;SDS011;69443;51.442;10.564;2023-06-01T08:33:24;7.85;;;5.75;;
80133;SDS011;69443;51.442;10.564;2023-06-01T08:35:50;5.40;;;4.38;;
80133;SDS011;69443;51.442;10.564;2023-06-01T08:38:15;7.70;;;6.40;;
80133;SDS011;69443;51.442;10.564;2023-06-01T08:40:40;4.40;;;3.92;;
80133;SDS011;69443;51.442;10.564;2023-06-01T08:43:11;6.93;;;5.47;;
80133;SDS011;69443;51.442;10.564;2023-06-01T08:45:41;5.88;;;4.00;;
80133;SDS011;69443;51.442;10.564;2023-06-01T08:48:08;6.38;;;5.40;;
80133;SDS011;69443;51.442;10.564;2023-06-01T08:50:37;4.72;;;4.25;;
80133;SDS011;69443;51.442;10.564;2023-06-01T08:53:03;5.07;;;4.25;;
80133;SDS011;69443;51.442;10.564;2023-06-01T08:55:29;6.10;;;4.90;;
80133;SDS011;69443;51.442;10.564;2023-06-01T08:57:55;13.00;;;9.20;;
80133;SDS011;69443;51.442;10.564;2023-06-01T09:00:22;11.95;;;10.27;;
80133;SDS011;69443;51.442;10.564;2023-06-01T09:02:48;6.45;;;5.35;;
80133;SDS011;69443;51.442;10.564;2023-06-01T09:05:14;12.10;;;7.80;;
80133;SDS011;69443;51.442;10.564;2023-06-01T09:07:40;9.23;;;7.57;;
80133;SDS011;69443;51.442;10.564;2023-06-01T09:10:05;10.55;;;8.43;;
80133;SDS011;69443;51.442;10.564;2023-06-01T09:12:31;10.80;;;8.45;;
80133;SDS011;69443;51.442;10.564;2023-06-01T09:17:45;11.65;;;9.50;;
80133;SDS011;69443;51.442;10.564;2023-06-01T09:20:13;7.82;;;5.80;;
80133;SDS011;69443;51.442;10.564;2023-06-01T09:22:40;14.82;;;11.13;;
80133;SDS011;69443;51.442;10.564;2023-06-01T09:25:10;9.00;;;6.78;;
80133;SDS011;69443;51.442;10.564;2023-06-01T09:27:44;11.18;;;8.45;;
80133;SDS011;69443;51.442;10.564;2023-06-01T09:30:14;11.52;;;8.95;;
80133;SDS011;69443;51.442;10.564;2023-06-01T09:32:41;9.32;;;7.00;;
80133;SDS011;69443;51.442;10.564;2023-06-01T09:35:07;9.88;;;8.75;;
80133;SDS011;69443;51.442;10.564;2023-06-01T09:37:37;10.38;;;9.27;;
80133;SDS011;69443;51.442;10.564;2023-06-01T09:40:15;9.30;;;8.23;;
80133;SDS011;69443;51.442;10.564;2023-06-01T09:42:42;11.23;;;9.00;;
80133;SDS011;69443;51.442;10.564;2023-06-01T09:45:14;12.65;;;10.05;;
80133;SDS011;69443;51.442;10.564;2023-06-01T09:47:43;14.43;;;11.68;;
80133;SDS011;69443;51.442;10.564;2023-06-01T09:50:08;12.13;;;9.93;;
80133;SDS011;69443;51.442;10.564;2023-06-01T09:52:34;11.02;;;8.98;;
80133;SDS011;69443;51.442;10.564;2023-06-01T09:55:06;14.60;;;10.82;;
80133;SDS011;69443;51.442;10.564;2023-06-01T09:57:33;14.20;;;10.30;;
80133;SDS011;69443;51.442;10.564;2023-06-01T10:00:00;10.02;;;8.23;;
80133;SDS011;69443;51.442;10.564;2023-06-01T10:02:27;10.40;;;8.60;;
80133;SDS011;69443;51.442;10.564;2023-06-01T10:04:56;11.23;;;9.70;;
80133;SDS011;69443;51.442;10.564;2023-06-01T10:07:23;12.57;;;10.38;;
80133;SDS011;69443;51.442;10.564;2023-06-01T10:09:56;11.27;;;9.35;;
80133;SDS011;69443;51.442;10.564;2023-06-01T10:12:23;10.75;;;9.27;;
80133;SDS011;69443;51.442;10.564;2023-06-01T10:14:50;15.95;;;12.30;;
80133;SDS011;69443;51.442;10.564;2023-06-01T10:17:15;14.07;;;11.02;;
80133;SDS011;69443;51.442;10.564;2023-06-01T10:19:42;14.35;;;10.00;;
80133;SDS011;69443;51.442;10.564;2023-06-01T10:22:08;14.82;;;10.68;;
80133;SDS011;69443;51.442;10.564;2023-06-01T10:24:35;16.10;;;11.77;;
80133;SDS011;69443;51.442;10.564;2023-06-01T10:27:26;11.90;;;8.68;;
80133;SDS011;69443;51.442;10.564;2023-06-01T10:29:54;8.93;;;8.02;;
80133;SDS011;69443;51.442;10.564;2023-06-01T10:40:42;10.80;;;8.90;;
80133;SDS011;69443;51.442;10.564;2023-06-01T10:46:01;11.85;;;9.23;;
80133;SDS011;69443;51.442;10.564;2023-06-01T10:48:50;10.38;;;8.85;;
80133;SDS011;69443;51.442;10.564;2023-06-01T10:51:18;11.15;;;9.07;;
80133;SDS011;69443;51.442;10.564;2023-06-01T10:53:45;9.15;;;7.78;;
80133;SDS011;69443;51.442;10.564;2023-06-01T11:04:01;8.50;;;6.90;;
80133;SDS011;69443;51.442;10.564;2023-06-01T11:06:30;8.93;;;7.35;;
80133;SDS011;69443;51.442;10.564;2023-06-01T11:09:03;9.90;;;7.75;;
80133;SDS011;69443;51.442;10.564;2023-06-01T11:14:23;10.18;;;7.78;;
80133;SDS011;69443;51.442;10.564;2023-06-01T11:16:51;13.35;;;7.47;;
80133;SDS011;69443;51.442;10.564;2023-06-01T11:19:20;8.50;;;6.45;;
80133;SDS011;69443;51.442;10.564;2023-06-01T11:21:50;11.32;;;8.18;;
80133;SDS011;69443;51.442;10.564;2023-06-01T11:24:34;7.70;;;6.22;;
80133;SDS011;69443;51.442;10.564;2023-06-01T11:27:08;9.38;;;6.90;;
80133;SDS011;69443;51.442;10.564;2023-06-01T11:29:35;7.75;;;6.47;;
80133;SDS011;69443;51.442;10.564;2023-06-01T11:32:02;8.50;;;6.13;;
80133;SDS011;69443;51.442;10.564;2023-06-01T11:34:37;12.95;;;7.20;;
80133;SDS011;69443;51.442;10.564;2023-06-01T11:37:04;8.98;;;6.68;;
80133;SDS011;69443;51.442;10.564;2023-06-01T11:39:31;6.65;;;5.95;;
80133;SDS011;69443;51.442;10.564;2023-06-01T11:42:12;8.20;;;5.63;;
80133;SDS011;69443;51.442;10.564;2023-06-01T11:44:40;8.35;;;6.20;;
80133;SDS011;69443;51.442;10.564;2023-06-01T11:47:07;7.38;;;6.07;;
80133;SDS011;69443;51.442;10.564;2023-06-01T11:49:39;6.75;;;5.93;;
80133;SDS011;69443;51.442;10.564;2023-06-01T11:52:08;8.52;;;6.30;;
80133;SDS011;69443;51.442;10.564;2023-06-01T11:54:34;8.88;;;6.20;;
80133;SDS011;69443;51.442;10.564;2023-06-01T11:57:00;10.07;;;6.53;;
80133;SDS011;69443;51.442;10.564;2023-06-01T11:59:35;7.00;;;5.57;;
80133;SDS011;69443;51.442;10.564;2023-06-01T12:05:02;6.55;;;5.43;;
80133;SDS011;69443;51.442;10.564;2023-06-01T12:07:45;7.55;;;5.15;;
80133;SDS011;69443;51.442;10.564;2023-06-01T12:10:12;6.40;;;5.65;;
80133;SDS011;69443;51.442;10.564;2023-06-01T12:12:40;7.00;;;5.00;;
80133;SDS011;69443;51.442;10.564;2023-06-01T12:15:08;8.40;;;5.28;;
80133;SDS011;69443;51.442;10.564;2023-06-01T12:17:47;7.15;;;5.43;;
80133;SDS011;69443;51.442;10.564;2023-06-01T12:20:25;7.38;;;5.32;;
80133;SDS011;69443;51.442;10.564;2023-06-01T12:22:54;5.82;;;4.60;;
80133;SDS011;69443;51.442;10.564;2023-06-01T12:25:23;5.45;;;4.07;;
80133;SDS011;69443;51.442;10.564;2023-06-01T12:28:07;6.00;;;3.72;;
80133;SDS011;69443;51.442;10.564;2023-06-01T12:30:35;5.78;;;4.18;;
80133;SDS011;69443;51.442;10.564;2023-06-01T12:33:01;5.82;;;4.07;;
80133;SDS011;69443;51.442;10.564;2023-06-01T12:35:29;5.13;;;4.22;;
80133;SDS011;69443;51.442;10.564;2023-06-01T12:38:04;6.55;;;4.50;;
80133;SDS011;69443;51.442;10.564;2023-06-01T12:40:31;5.70;;;3.92;;
80133;SDS011;69443;51.442;10.564;2023-06-01T12:42:57;5.53;;;3.80;;
80133;SDS011;69443;51.442;10.564;2023-06-01T12:45:22;6.15;;;3.72;;
80133;SDS011;69443;51.442;10.564;2023-06-01T12:47:48;6.13;;;4.25;;
80133;SDS011;69443;51.442;10.564;2023-06-01T12:50:13;6.28;;;4.85;;
80133;SDS011;69443;51.442;10.564;2023-06-01T12:52:39;7.05;;;3.78;;
80133;SDS011;69443;51.442;10.564;2023-06-01T12:55:07;5.72;;;4.50;;
80133;SDS011;69443;51.442;10.564;2023-06-01T12:57:34;6.95;;;4.63;;
80133;SDS011;69443;51.442;10.564;2023-06-01T13:00:00;5.88;;;4.03;;
80133;SDS011;69443;51.442;10.564;2023-06-01T13:02:27;3.72;;;3.33;;
80133;SDS011;69443;51.442;10.564;2023-06-01T13:04:52;6.10;;;4.95;;
80133;SDS011;69443;51.442;10.564;2023-06-01T13:07:18;4.93;;;3.83;;
80133;SDS011;69443;51.442;10.564;2023-06-01T13:09:47;6.82;;;3.83;;
80133;SDS011;69443;51.442;10.564;2023-06-01T13:12:12;5.25;;;3.85;;
80133;SDS011;69443;51.442;10.564;2023-06-01T13:14:38;4.03;;;3.50;;
80133;SDS011;69443;51.442;10.564;2023-06-01T13:17:03;7.55;;;4.65;;
80133;SDS011;69443;51.442;10.564;2023-06-01T13:19:29;5.28;;;4.40;;
80133;SDS011;69443;51.442;10.564;2023-06-01T13:21:54;6.50;;;4.68;;
80133;SDS011;69443;51.442;10.564;2023-06-01T13:24:21;4.75;;;3.83;;
80133;SDS011;69443;51.442;10.564;2023-06-01T13:26:47;7.45;;;4.95;;
80133;SDS011;69443;51.442;10.564;2023-06-01T13:29:12;5.40;;;3.25;;
80133;SDS011;69443;51.442;10.564;2023-06-01T13:31:38;4.68;;;3.20;;
80133;SDS011;69443;51.442;10.564;2023-06-01T13:34:04;6.53;;;4.53;;
80133;SDS011;69443;51.442;10.564;2023-06-01T13:36:29;6.13;;;3.90;;
80133;SDS011;69443;51.442;10.564;2023-06-01T13:38:55;5.82;;;4.05;;
80133;SDS011;69443;51.442;10.564;2023-06-01T13:41:21;5.63;;;4.00;;
80133;SDS011;69443;51.442;10.564;2023-06-01T13:43:47;5.80;;;4.18;;
80133;SDS011;69443;51.442;10.564;2023-06-01T13:46:12;5.68;;;3.97;;
80133;SDS011;69443;51.442;10.564;2023-06-01T13:48:38;7.10;;;4.60;;
80133;SDS011;69443;51.442;10.564;2023-06-01T13:51:03;3.83;;;3.20;;
80133;SDS011;69443;51.442;10.564;2023-06-01T13:53:30;5.63;;;3.90;;
80133;SDS011;69443;51.442;10.564;2023-06-01T13:55:55;5.30;;;3.53;;
80133;SDS011;69443;51.442;10.564;2023-06-01T13:58:21;5.75;;;4.25;;
80133;SDS011;69443;51.442;10.564;2023-06-01T14:00:47;3.63;;;3.33;;
80133;SDS011;69443;51.442;10.564;2023-06-01T14:03:12;4.55;;;3.58;;
80133;SDS011;69443;51.442;10.564;2023-06-01T14:05:38;4.88;;;3.53;;
80133;SDS011;69443;51.442;10.564;2023-06-01T14:08:03;4.45;;;3.65;;
80133;SDS011;69443;51.442;10.564;2023-06-01T14:10:30;4.93;;;3.40;;
80133;SDS011;69443;51.442;10.564;2023-06-01T14:12:56;5.60;;;3.72;;
80133;SDS011;69443;51.442;10.564;2023-06-01T14:15:21;4.32;;;3.00;;
80133;SDS011;69443;51.442;10.564;2023-06-01T14:17:47;4.95;;;3.00;;
80133;SDS011;69443;51.442;10.564;2023-06-01T14:20:15;3.88;;;3.08;;
80133;SDS011;69443;51.442;10.564;2023-06-01T14:22:41;4.10;;;3.38;;
80133;SDS011;69443;51.442;10.564;2023-06-01T14:25:07;10.52;;;4.07;;
80133;SDS011;69443;51.442;10.564;2023-06-01T14:27:33;5.30;;;3.28;;
80133;SDS011;69443;51.442;10.564;2023-06-01T14:29:58;4.20;;;3.20;;
80133;SDS011;69443;51.442;10.564;2023-06-01T14:32:25;3.35;;;3.05;;
80133;SDS011;69443;51.442;10.564;2023-06-01T14:34:51;3.08;;;2.80;;
80133;SDS011;69443;51.442;10.564;2023-06-01T14:37:16;4.53;;;3.58;;
80133;SDS011;69443;51.442;10.564;2023-06-01T14:39:41;6.47;;;4.15;;
80133;SDS011;69443;51.442;10.564;2023-06-01T14:42:07;5.35;;;3.35;;
80133;SDS011;69443;51.442;10.564;2023-06-01T14:44:33;5.45;;;3.72;;
80133;SDS011;69443;51.442;10.564;2023-06-01T14:46:58;4.82;;;3.63;;
80133;SDS011;69443;51.442;10.564;2023-06-01T14:49:23;4.07;;;3.45;;
80133;SDS011;69443;51.442;10.564;2023-06-01T14:51:49;4.93;;;3.72;;
80133;SDS011;69443;51.442;10.564;2023-06-01T14:54:14;4.03;;;3.00;;
80133;SDS011;69443;51.442;10.564;2023-06-01T14:56:40;5.57;;;3.80;;
80133;SDS011;69443;51.442;10.564;2023-06-01T14:59:07;6.50;;;4.10;;
80133;SDS011;69443;51.442;10.564;2023-06-01T15:01:32;4.40;;;4.00;;
80133;SDS011;69443;51.442;10.564;2023-06-01T15:03:58;3.85;;;2.97;;
80133;SDS011;69443;51.442;10.564;2023-06-01T15:06:23;3.88;;;3.13;;
80133;SDS011;69443;51.442;10.564;2023-06-01T15:08:49;6.15;;;4.03;;
80133;SDS011;69443;51.442;10.564;2023-06-01T15:11:14;6.57;;;4.15;;
80133;SDS011;69443;51.442;10.564;2023-06-01T15:13:40;7.07;;;4.25;;